sensor_id;sensor_type;location;lat;lon;timestamp;pressure;altitude;pressure_sealevel;temperature;humidity
66664;BME280;59683;51.428;-1.994;2023-02-12T00:01:12;102912.50;;;6.17;100.00
66664;BME280;59683;51.428;-1.994;2023-02-12T00:03:39;102920.06;;;6.29;100.00
66664;BME280;59683;51.428;-1.994;2023-02-12T00:06:06;102926.19;;;6.30;100.00
66664;BME280;59683;51.428;-1.994;2023-02-12T00:08:32;102907.25;;;6.17;100.00
66664;BME280;59683;51.428;-1.994;2023-02-12T00:10:57;102924.47;;;6.29;100.00
66664;BME280;59683;51.428;-1.994;2023-02-12T00:13:23;102937.56;;;6.32;100.00
66664;BME280;59683;51.428;-1.994;2023-02-12T00:15:48;102926.28;;;6.27;100.00
66664;BME280;59683;51.428;-1.994;2023-02-12T00:18:14;102902.97;;;6.12;100.00
66664;BME280;59683;51.428;-1.994;2023-02-12T00:20:40;102925.53;;;6.22;100.00
66664;BME280;59683;51.428;-1.994;2023-02-12T00:23:05;102909.94;;;6.14;100.00
66664;BME280;59683;51.428;-1.994;2023-02-12T00:25:31;102922.91;;;6.20;100.00
66664;BME280;59683;51.428;-1.994;2023-02-12T00:27:57;102909.09;;;6.12;100.00
66664;BME280;59683;51.428;-1.994;2023-02-12T00:30:22;102918.56;;;6.19;100.00
66664;BME280;59683;51.428;-1.994;2023-02-12T00:32:48;102916.91;;;6.15;100.00
66664;BME280;59683;51.428;-1.994;2023-02-12T00:35:13;102923.09;;;6.14;100.00
66664;BME280;59683;51.428;-1.994;2023-02-12T00:37:40;102921.38;;;6.12;100.00
66664;BME280;59683;51.428;-1.994;2023-02-12T00:40:06;102894.47;;;6.02;100.00
66664;BME280;59683;51.428;-1.994;2023-02-12T00:42:32;102897.13;;;6.00;100.00
66664;BME280;59683;51.428;-1.994;2023-02-12T00:44:57;102911.84;;;6.07;100.00
66664;BME280;59683;51.428;-1.994;2023-02-12T00:47:22;102915.16;;;6.16;100.00
66664;BME280;59683;51.428;-1.994;2023-02-12T00:49:48;102897.97;;;6.01;100.00
66664;BME280;59683;51.428;-1.994;2023-02-12T00:52:14;102922.22;;;6.14;100.00
66664;BME280;59683;51.428;-1.994;2023-02-12T00:54:39;102903.22;;;6.02;100.00
66664;BME280;59683;51.428;-1.994;2023-02-12T00:57:04;102910.97;;;6.07;100.00
66664;BME280;59683;51.428;-1.994;2023-02-12T00:59:30;102912.69;;;6.08;100.00
66664;BME280;59683;51.428;-1.994;2023-02-12T01:01:56;102918.03;;;6.05;100.00
66664;BME280;59683;51.428;-1.994;2023-02-12T01:04:21;102929.38;;;6.07;100.00
66664;BME280;59683;51.428;-1.994;2023-02-12T01:06:47;102918.16;;;6.00;100.00
66664;BME280;59683;51.428;-1.994;2023-02-12T01:09:13;102903.22;;;6.02;100.00
66664;BME280;59683;51.428;-1.994;2023-02-12T01:11:39;102895.47;;;5.96;100.00
66664;BME280;59683;51.428;-1.994;2023-02-12T01:14:04;102899.03;;;5.94;100.00
66664;BME280;59683;51.428;-1.994;2023-02-12T01:16:30;102909.41;;;6.00;100.00
66664;BME280;59683;51.428;-1.994;2023-02-12T01:19:01;102890.31;;;5.90;100.00
66664;BME280;59683;51.428;-1.994;2023-02-12T01:21:30;102904.31;;;5.92;100.00
66664;BME280;59683;51.428;-1.994;2023-02-12T01:23:56;102904.19;;;5.98;100.00
66664;BME280;59683;51.428;-1.994;2023-02-12T01:26:23;102899.00;;;5.95;100.00
66664;BME280;59683;51.428;-1.994;2023-02-12T01:28:54;102909.47;;;5.97;100.00
66664;BME280;59683;51.428;-1.994;2023-02-12T01:31:24;102905.28;;;5.87;100.00
66664;BME280;59683;51.428;-1.994;2023-02-12T01:33:52;102921.75;;;5.96;100.00
66664;BME280;59683;51.428;-1.994;2023-02-12T01:36:18;102912.09;;;5.97;100.00
66664;BME280;59683;51.428;-1.994;2023-02-12T01:38:43;102888.75;;;5.83;100.00
66664;BME280;59683;51.428;-1.994;2023-02-12T01:41:11;102899.94;;;5.91;100.00
66664;BME280;59683;51.428;-1.994;2023-02-12T01:43:37;102879.13;;;5.82;100.00
66664;BME280;59683;51.428;-1.994;2023-02-12T01:46:04;102884.31;;;5.85;100.00
66664;BME280;59683;51.428;-1.994;2023-02-12T01:48:33;102889.44;;;5.91;100.00
